Time;durP1;ratioP1;P1;durP2;ratioP2;P2;SDS_P1;SDS_P2;PMS_P1;PMS_P2;Temp;Humidity;BMP_temperature;BMP_pressure;BME280_temperature;BME280_humidity;BME280_pressure;Samples;Min_cycle;Max_cycle;Signal;HPM_P1;HPM_P2
2024/04/08 00:00:21;;;;;;;9.00;1.70;;;;;;;16.10;100.00;98227.63;4987044;28;20314;-78
2024/04/08 00:02:49;;;;;;;10.25;1.90;;;;;;;16.44;100.00;98261.06;4991191;28;20041;-78
2024/04/08 00:05:16;;;;;;;7.75;2.03;;;;;;;16.48;100.00;98267.69;4990868;28;20022;-79
2024/04/08 00:07:41;;;;;;;11.85;1.83;;;;;;;16.49;100.00;98263.03;4991450;28;20321;-78
2024/04/08 00:10:07;;;;;;;11.15;1.98;;;;;;;16.44;100.00;98256.44;4983109;28;20033;-78
2024/04/08 00:12:32;;;;;;;16.50;2.00;;;;;;;16.42;100.00;98247.66;4990493;28;20017;-79
2024/04/08 00:14:57;;;;;;;18.73;1.98;;;;;;;16.29;100.00;98218.03;4988654;28;20101;-78
2024/04/08 00:17:22;;;;;;;17.05;1.88;;;;;;;16.52;100.00;98232.50;5004841;28;20101;-78
2024/04/08 00:19:48;;;;;;;10.77;1.67;;;;;;;16.43;100.00;98202.91;4987114;28;20113;-78
2024/04/08 00:22:13;;;;;;;7.32;1.85;;;;;;;16.55;100.00;98218.31;4987049;28;20022;-78
2024/04/08 00:24:38;;;;;;;8.93;1.77;;;;;;;16.58;100.00;98220.53;4985012;28;20033;-78
2024/04/08 00:27:04;;;;;;;13.18;2.22;;;;;;;16.51;100.00;98225.38;4987348;28;20101;-78
2024/04/08 00:29:29;;;;;;;6.25;1.70;;;;;;;16.51;100.00;98230.84;4983853;28;20029;-78
2024/04/08 00:31:54;;;;;;;11.77;2.00;;;;;;;16.37;100.00;98239.44;4988579;28;20026;-78
2024/04/08 00:34:20;;;;;;;14.90;2.33;;;;;;;16.30;100.00;98246.16;4987665;28;20033;-78
2024/04/08 00:36:45;;;;;;;10.48;1.73;;;;;;;16.07;100.00;98220.75;5004195;28;20034;-78
2024/04/08 00:39:10;;;;;;;9.15;1.92;;;;;;;16.14;100.00;98256.06;4984858;28;20090;-78
2024/04/08 00:41:35;;;;;;;10.73;1.85;;;;;;;15.96;100.00;98252.53;4986530;28;20034;-78
2024/04/08 00:44:01;;;;;;;11.48;2.33;;;;;;;15.95;100.00;98242.69;4988914;28;20022;-79
2024/04/08 00:46:27;;;;;;;9.68;2.20;;;;;;;15.86;100.00;98227.84;4999948;28;20057;-78
2024/04/08 00:48:55;;;;;;;12.98;1.73;;;;;;;15.99;100.00;98245.75;4989946;28;20032;-78
2024/04/08 00:51:20;;;;;;;7.65;1.75;;;;;;;16.03;100.00;98256.97;4987868;28;20025;-79
2024/04/08 00:53:49;;;;;;;7.47;1.98;;;;;;;15.94;100.00;98243.78;4994752;28;20026;-78
2024/04/08 00:56:17;;;;;;;16.53;2.30;;;;;;;15.96;100.00;98235.34;4986549;28;20222;-78
2024/04/08 00:58:43;;;;;;;7.45;1.65;;;;;;;15.95;100.00;98239.16;4982361;28;20030;-78
2024/04/08 01:01:08;;;;;;;9.23;2.00;;;;;;;15.81;100.00;98222.31;4986407;28;20029;-78
2024/04/08 01:03:33;;;;;;;6.20;1.75;;;;;;;15.70;100.00;98206.91;5011149;28;20026;-78
2024/04/08 01:05:59;;;;;;;12.02;2.45;;;;;;;15.75;100.00;98206.97;4991138;28;20022;-78
2024/04/08 01:08:25;;;;;;;13.70;1.80;;;;;;;15.83;100.00;98211.19;5008360;28;20348;-79
2024/04/08 01:10:50;;;;;;;10.30;1.63;;;;;;;15.72;100.00;98196.56;4987772;28;20030;-78
2024/04/08 01:13:15;;;;;;;6.25;1.90;;;;;;;15.74;100.00;98202.56;4980849;28;20113;-79
2024/04/08 01:15:41;;;;;;;14.98;2.10;;;;;;;15.82;100.00;98220.41;5001891;28;20030;-79
2024/04/08 01:18:06;;;;;;;16.65;2.30;;;;;;;15.82;100.00;98207.59;4983686;28;20026;-79
2024/04/08 01:20:32;;;;;;;10.48;1.92;;;;;;;15.63;100.00;98181.66;5005183;28;20023;-79
2024/04/08 01:23:00;;;;;;;11.55;1.92;;;;;;;15.52;100.00;98178.81;5005955;28;20050;-78
2024/04/08 01:25:28;;;;;;;10.27;2.72;;;;;;;15.50;100.00;98191.03;5005079;28;20018;-79
2024/04/08 01:27:54;;;;;;;21.38;2.38;;;;;;;15.51;100.00;98228.97;4987293;28;20101;-78
2024/04/08 01:30:21;;;;;;;8.48;2.08;;;;;;;15.47;100.00;98222.34;4987553;28;20022;-79
2024/04/08 01:32:46;;;;;;;8.13;2.25;;;;;;;15.37;100.00;98211.28;4987700;28;20018;-79
2024/04/08 01:35:12;;;;;;;12.65;2.42;;;;;;;15.24;100.00;98192.53;4993202;28;20042;-78
2024/04/08 01:37:37;;;;;;;9.88;2.13;;;;;;;15.18;100.00;98182.66;5003025;28;20022;-78
2024/04/08 01:40:03;;;;;;;13.05;2.47;;;;;;;15.25;100.00;98191.47;5015268;28;20046;-78
2024/04/08 01:42:28;;;;;;;11.48;2.42;;;;;;;15.32;100.00;98203.84;5012441;28;20094;-78
2024/04/08 01:44:53;;;;;;;5.78;1.70;;;;;;;15.21;100.00;98212.94;5001074;28;20029;-78
2024/04/08 01:47:18;;;;;;;7.88;2.13;;;;;;;15.20;100.00;98196.84;4999785;28;20068;-78
2024/04/08 01:49:44;;;;;;;10.82;2.10;;;;;;;15.16;100.00;98192.97;5004417;28;20043;-78
2024/04/08 01:52:09;;;;;;;11.70;2.25;;;;;;;15.34;100.00;98231.69;4995396;28;20022;-79
2024/04/08 01:54:34;;;;;;;10.73;2.45;;;;;;;15.10;100.00;98201.06;5012383;28;20026;-78
2024/04/08 01:56:59;;;;;;;9.80;1.70;;;;;;;15.10;100.00;98203.78;5001565;28;20025;-78
2024/04/08 01:59:25;;;;;;;15.15;2.13;;;;;;;15.23;100.00;98238.06;4994151;28;20030;-78
2024/04/08 02:01:50;;;;;;;11.65;2.03;;;;;;;15.15;100.00;98224.03;4997172;28;20015;-78
2024/04/08 02:04:15;;;;;;;8.57;2.05;;;;;;;15.17;100.00;98227.28;5019592;28;20026;-78
2024/04/08 02:06:41;;;;;;;13.68;2.88;;;;;;;15.00;100.00;98217.22;5000953;28;20013;-78
2024/04/08 02:09:08;;;;;;;9.20;2.72;;;;;;;14.85;100.00;98187.00;4995392;28;20050;-78
2024/04/08 02:11:33;;;;;;;8.15;1.85;;;;;;;15.21;100.00;98225.75;4997685;28;20013;-78
2024/04/08 02:13:58;;;;;;;10.43;2.17;;;;;;;14.93;100.00;98189.31;5015733;28;20098;-79
2024/04/08 02:16:24;;;;;;;6.88;1.90;;;;;;;14.96;100.00;98199.75;4989581;28;20049;-79
2024/04/08 02:18:50;;;;;;;10.98;2.08;;;;;;;15.21;100.00;98234.75;4983577;28;20022;-78
2024/04/08 02:21:16;;;;;;;13.52;2.30;;;;;;;15.05;100.00;98214.59;4988771;28;20133;-79
2024/04/08 02:23:41;;;;;;;19.25;2.00;;;;;;;15.17;100.00;98238.19;4987411;28;20030;-78
2024/04/08 02:26:07;;;;;;;10.77;2.22;;;;;;;15.13;100.00;98230.53;4984439;28;20038;-79
2024/04/08 02:28:32;;;;;;;10.45;1.92;;;;;;;15.03;100.00;98237.69;4990251;28;20050;-78
2024/04/08 02:31:04;;;;;;;8.55;2.20;;;;;;;15.07;100.00;98249.78;4979562;28;20022;-78
2024/04/08 02:33:35;;;;;;;5.43;1.80;;;;;;;15.07;100.00;98253.31;4979783;28;20054;-78
2024/04/08 02:36:02;;;;;;;9.43;2.10;;;;;;;14.91;100.00;98256.84;4999815;28;20325;-78
2024/04/08 02:38:27;;;;;;;11.73;1.92;;;;;;;14.90;100.00;98247.00;4988167;28;20038;-78
2024/04/08 02:40:53;;;;;;;10.18;2.33;;;;;;;14.81;100.00;98251.22;4986614;28;20069;-78
2024/04/08 02:43:18;;;;;;;8.25;1.90;;;;;;;14.54;100.00;98230.03;4993734;28;20202;-78
2024/04/08 02:45:43;;;;;;;15.93;2.20;;;;;;;14.44;100.00;98235.25;4986915;28;20018;-79
2024/04/08 02:48:09;;;;;;;10.32;2.10;;;;;;;14.40;100.00;98234.06;5007755;28;20337;-79
2024/04/08 02:50:34;;;;;;;9.32;2.38;;;;;;;14.57;100.00;98255.94;4987636;28;20019;-78
2024/04/08 02:52:59;;;;;;;6.50;1.85;;;;;;;14.52;100.00;98258.53;4988075;28;20048;-78
2024/04/08 02:55:24;;;;;;;12.35;2.53;;;;;;;14.41;100.00;98249.34;5005193;28;20029;-78
2024/04/08 02:57:50;;;;;;;7.53;1.70;;;;;;;14.13;100.00;98221.00;4990071;28;20217;-78
2024/04/08 03:00:15;;;;;;;11.52;2.15;;;;;;;14.42;100.00;98264.59;4986638;28;20203;-78
2024/04/08 03:02:44;;;;;;;11.70;2.22;;;;;;;14.36;100.00;98268.28;4990779;28;20348;-79
2024/04/08 03:05:10;;;;;;;6.80;2.03;;;;;;;14.22;100.00;98254.09;5001602;23;20038;-77
2024/04/08 03:07:35;;;;;;;13.65;1.98;;;;;;;14.20;100.00;98262.50;4995884;28;20057;-77
2024/04/08 03:10:00;;;;;;;12.20;2.15;;;;;;;14.14;100.00;98252.56;4982445;28;20397;-77
2024/04/08 03:12:26;;;;;;;13.00;1.95;;;;;;;14.13;100.00;98258.28;4983324;28;20061;-77
2024/04/08 03:14:51;;;;;;;9.98;1.90;;;;;;;14.08;100.00;98252.72;4987215;28;20034;-77
2024/04/08 03:17:16;;;;;;;13.55;2.67;;;;;;;13.99;100.00;98249.53;4984975;28;20023;-77
2024/04/08 03:19:41;;;;;;;9.73;2.47;;;;;;;13.90;100.00;98261.84;4981829;28;20414;-76
2024/04/08 03:22:08;;;;;;;11.52;2.72;;;;;;;13.74;100.00;98268.84;4977002;28;20058;-78
2024/04/08 03:24:34;;;;;;;11.77;2.60;;;;;;;13.52;100.00;98271.31;4978650;28;20019;-78
2024/04/08 03:26:59;;;;;;;12.70;3.22;;;;;;;13.40;100.00;98265.88;4983468;28;20033;-78
2024/04/08 03:29:25;;;;;;;6.85;2.22;;;;;;;13.30;100.00;98279.19;4997846;23;20518;-59
2024/04/08 03:31:51;;;;;;;14.15;2.92;;;;;;;13.25;100.00;98282.56;4996511;28;20106;-59
2024/04/08 03:34:16;;;;;;;9.23;2.70;;;;;;;13.22;100.00;98284.94;4997485;28;20470;-59
2024/04/08 03:36:41;;;;;;;7.40;2.83;;;;;;;13.22;100.00;98280.34;4989955;28;20378;-59
2024/04/08 03:39:08;;;;;;;10.90;2.72;;;;;;;13.27;100.00;98291.34;4979532;28;20121;-59
2024/04/08 03:41:33;;;;;;;8.35;2.65;;;;;;;13.29;100.00;98294.69;4987775;28;20037;-59
2024/04/08 03:43:59;;;;;;;10.00;2.40;;;;;;;13.23;100.00;98298.31;4987977;28;20026;-59
2024/04/08 03:46:25;;;;;;;11.52;2.60;;;;;;;13.13;100.00;98303.47;4984318;28;20031;-59
2024/04/08 03:48:50;;;;;;;15.25;3.20;;;;;;;13.12;100.00;98299.09;4980318;28;20033;-59
2024/04/08 03:51:17;;;;;;;11.00;2.95;;;;;;;13.09;100.00;98304.97;4986007;28;20050;-59
2024/04/08 03:53:43;;;;;;;9.75;2.80;;;;;;;13.00;100.00;98309.94;4980187;28;20041;-59
2024/04/08 03:56:10;;;;;;;8.35;2.50;;;;;;;12.96;100.00;98322.28;4991776;28;20046;-59
2024/04/08 03:58:38;;;;;;;11.15;2.55;;;;;;;12.99;100.00;98324.53;4977627;28;20034;-59
2024/04/08 04:01:04;;;;;;;12.02;2.75;;;;;;;12.93;100.00;98322.75;4985980;28;20367;-60
2024/04/08 04:03:29;;;;;;;19.30;3.65;;;;;;;12.86;100.00;98317.44;4985920;28;20030;-58
2024/04/08 04:05:55;;;;;;;14.57;2.60;;;;;;;12.99;100.00;98329.97;4989830;28;20019;-59
2024/04/08 04:08:20;;;;;;;16.02;2.45;;;;;;;12.84;100.00;98308.69;4976459;28;20153;-58
2024/04/08 04:10:46;;;;;;;12.43;2.30;;;;;;;12.82;100.00;98315.41;4991258;28;20026;-59
2024/04/08 04:13:11;;;;;;;12.68;2.42;;;;;;;12.72;100.00;98311.34;4993912;28;20504;-59
2024/04/08 04:15:37;;;;;;;11.57;2.78;;;;;;;12.79;100.00;98318.59;4992184;28;20049;-64
2024/04/08 04:18:02;;;;;;;6.95;2.40;;;;;;;12.82;100.00;98310.81;4989567;28;20033;-63
2024/04/08 04:20:40;;;;;;;19.35;2.70;;;;;;;12.77;100.00;98315.25;4995081;28;20040;-58
2024/04/08 04:23:06;;;;;;;16.95;2.95;;;;;;;12.67;100.00;98323.94;4986333;28;20069;-62
2024/04/08 04:25:32;;;;;;;10.23;2.53;;;;;;;12.50;100.00;98318.31;4985074;28;20352;-59
2024/04/08 04:28:00;;;;;;;17.65;3.58;;;;;;;12.43;100.00;98329.25;4983970;28;20033;-59
2024/04/08 04:30:26;;;;;;;4.97;2.67;;;;;;;12.34;100.00;98338.75;4988264;28;20019;-59
2024/04/08 04:32:51;;;;;;;9.93;3.55;;;;;;;12.33;100.00;98344.41;4978773;28;20018;-59
2024/04/08 04:35:17;;;;;;;16.00;3.78;;;;;;;12.36;100.00;98343.94;4980172;28;20526;-59
2024/04/08 04:37:43;;;;;;;8.68;2.80;;;;;;;12.30;100.00;98340.25;4981529;28;20073;-59
2024/04/08 04:40:09;;;;;;;8.25;2.40;;;;;;;12.17;100.00;98335.78;4979728;28;20061;-59
2024/04/08 04:42:35;;;;;;;9.13;3.17;;;;;;;12.11;100.00;98325.03;4987468;28;20034;-59
2024/04/08 04:45:00;;;;;;;15.00;2.80;;;;;;;12.05;100.00;98340.28;4983654;28;20440;-59
2024/04/08 04:47:26;;;;;;;5.63;2.30;;;;;;;12.15;100.00;98350.63;4983838;28;20455;-59
2024/04/08 04:49:51;;;;;;;15.35;2.83;;;;;;;12.16;100.00;98338.75;4982420;28;20045;-59
2024/04/08 04:52:16;;;;;;;10.98;2.80;;;;;;;12.18;100.00;98350.19;4988887;28;20109;-59
2024/04/08 04:54:42;;;;;;;7.95;2.60;;;;;;;12.09;100.00;98336.09;4988216;28;20040;-60
2024/04/08 04:57:07;;;;;;;19.08;3.03;;;;;;;12.10;100.00;98345.88;4991922;28;20030;-60
2024/04/08 04:59:33;;;;;;;9.55;2.72;;;;;;;12.13;100.00;98348.16;4987406;28;20031;-60
2024/04/08 05:01:58;;;;;;;5.88;2.22;;;;;;;12.17;100.00;98340.41;4988137;28;20081;-60
2024/04/08 05:04:23;;;;;;;13.18;3.30;;;;;;;12.31;100.00;98352.75;4986638;28;20473;-60
2024/04/08 05:06:50;;;;;;;10.82;2.90;;;;;;;12.42;100.00;98359.34;4982726;28;20125;-57
2024/04/08 05:09:15;;;;;;;13.18;2.67;;;;;;;12.48;100.00;98356.53;4988234;28;20450;-57
2024/04/08 05:11:42;;;;;;;11.45;2.50;;;;;;;12.55;100.00;98340.19;4994250;28;20101;-61
2024/04/08 05:14:08;;;;;;;10.40;2.40;;;;;;;12.72;100.00;98337.66;4993007;28;20117;-61
2024/04/08 05:16:34;;;;;;;9.77;2.70;;;;;;;12.79;100.00;98335.69;4985212;28;20101;-61
2024/04/08 05:18:59;;;;;;;10.15;2.38;;;;;;;12.80;100.00;98337.34;4984692;28;20030;-61
2024/04/08 05:21:25;;;;;;;13.52;2.67;;;;;;;12.83;100.00;98336.88;4985189;28;20026;-61
2024/04/08 05:23:50;;;;;;;11.55;2.63;;;;;;;12.90;100.00;98344.94;4983997;28;20402;-61
2024/04/08 05:26:16;;;;;;;13.10;2.85;;;;;;;12.83;100.00;98347.75;4981610;28;20105;-62
2024/04/08 05:28:42;;;;;;;14.55;2.60;;;;;;;12.93;100.00;98345.31;4985794;28;20018;-61
2024/04/08 05:31:08;;;;;;;9.35;2.00;;;;;;;12.90;100.00;98343.06;4986432;28;20022;-61
2024/04/08 05:33:34;;;;;;;15.48;2.08;;;;;;;12.99;100.00;98337.31;4992173;28;20124;-61
2024/04/08 05:36:00;;;;;;;10.80;1.95;;;;;;;13.19;100.00;98340.56;4989898;28;20038;-60
2024/04/08 05:38:25;;;;;;;9.20;2.55;;;;;;;13.27;100.00;98345.69;4976953;28;20085;-61
2024/04/08 05:40:51;;;;;;;7.40;1.85;;;;;;;13.52;100.00;98336.56;4974510;28;20364;-60
2024/04/08 05:43:16;;;;;;;5.82;1.83;;;;;;;13.77;100.00;98339.88;4993599;28;20035;-60
2024/04/08 05:45:43;;;;;;;13.90;2.03;;;;;;;14.11;100.00;98342.84;4987534;28;20437;-60
2024/04/08 05:48:09;;;;;;;7.13;1.80;;;;;;;14.50;100.00;98347.75;4984565;28;20397;-60
2024/04/08 05:50:34;;;;;;;6.95;2.00;;;;;;;14.82;100.00;98338.09;4991328;28;20027;-61
2024/04/08 05:53:00;;;;;;;10.25;2.13;;;;;;;15.24;100.00;98336.97;4980754;28;20029;-60
2024/04/08 05:55:28;;;;;;;5.95;2.30;;;;;;;15.69;100.00;98327.94;4988446;28;20026;-61
2024/04/08 05:57:54;;;;;;;16.52;2.15;;;;;;;16.13;100.00;98322.63;4980155;28;20378;-60
2024/04/08 06:00:19;;;;;;;10.07;2.20;;;;;;;16.40;100.00;98325.44;4986695;28;20030;-61
2024/04/08 06:02:49;;;;;;;12.95;2.38;;;;;;;16.93;100.00;98318.50;4987396;28;20121;-61
2024/04/08 06:05:19;;;;;;;8.07;1.98;;;;;;;17.15;100.00;98315.69;4979451;28;20061;-61
2024/04/08 06:09:10;;;;;;;11.85;2.00;;;;;;;16.67;100.00;98305.59;5423804;26;20316;-79
2024/04/08 06:11:35;;;;;;;10.00;2.40;;;;;;;16.90;100.00;98313.53;5407035;26;19992;-78
2024/04/08 06:14:01;;;;;;;8.02;2.22;;;;;;;17.00;100.00;98291.78;5407621;26;20108;-76
2024/04/08 06:16:26;;;;;;;7.13;1.92;;;;;;;17.77;100.00;98289.72;5403668;26;20019;-77
2024/04/08 06:18:51;;;;;;;9.15;2.13;;;;;;;18.32;100.00;98291.19;5404003;26;20127;-77
2024/04/08 06:21:18;;;;;;;15.52;2.47;;;;;;;18.62;100.00;98297.88;5406069;26;20000;-80
2024/04/08 06:23:44;;;;;;;7.30;2.35;;;;;;;18.81;100.00;98293.59;5412556;26;20040;-79
2024/04/08 06:26:10;;;;;;;12.85;2.55;;;;;;;19.48;100.00;98283.53;5408725;26;20020;-79
2024/04/08 06:28:36;;;;;;;9.07;2.08;;;;;;;20.31;100.00;98279.63;5410887;26;19988;-78
2024/04/08 06:31:02;;;;;;;6.38;1.90;;;;;;;21.16;100.00;98294.34;5409799;26;20198;-77
2024/04/08 06:33:28;;;;;;;13.68;2.28;;;;;;;21.79;100.00;98280.66;5398547;26;20008;-79
2024/04/08 06:35:54;;;;;;;10.77;1.90;;;;;;;22.28;100.00;98298.13;5409887;26;19999;-77
2024/04/08 06:38:20;;;;;;;10.07;1.83;;;;;;;23.02;100.00;98295.03;5409785;26;19996;-73
2024/04/08 06:40:46;;;;;;;17.58;2.28;;;;;;;23.56;100.00;98299.22;5396880;26;19992;-73
2024/04/08 06:43:11;;;;;;;13.32;2.42;;;;;;;23.44;100.00;98305.19;5403535;26;20052;-73
2024/04/08 06:45:36;;;;;;;14.25;2.13;;;;;;;23.53;100.00;98292.34;5394861;26;20013;-73
2024/04/08 06:48:02;;;;;;;17.50;3.08;;;;;;;23.29;100.00;98297.13;5393233;26;20007;-73
2024/04/08 06:50:27;;;;;;;7.95;2.80;;;;;;;23.61;100.00;98315.69;5400904;26;20002;-73
2024/04/08 06:52:53;;;;;;;14.10;3.42;;;;;;;24.46;96.63;98305.38;5395921;26;20045;-76
2024/04/08 06:55:18;;;;;;;18.33;2.72;;;;;;;24.25;93.22;98288.34;5401269;26;19996;-76
2024/04/08 06:57:44;;;;;;;10.50;2.90;;;;;;;23.66;93.49;98287.16;5400918;26;19989;-72
2024/04/08 07:00:10;;;;;;;14.93;2.45;;;;;;;24.21;94.84;98299.22;5390535;26;20009;-72
2024/04/08 07:02:36;;;;;;;13.00;2.60;;;;;;;24.90;90.88;98287.34;5403634;26;20214;-76
2024/04/08 07:06:19;;;;;;;12.05;2.55;;;;;;;25.88;87.84;98291.44;5408059;26;20222;-81
2024/04/08 07:08:59;;;;;;;9.85;2.78;;;;;;;26.59;81.41;98272.91;5415085;26;20003;-75
2024/04/08 07:11:26;;;;;;;15.73;2.58;;;;;;;26.49;80.89;98286.19;5398221;26;20007;-76
2024/04/08 07:13:52;;;;;;;13.43;2.60;;;;;;;27.42;74.40;98269.25;5390729;26;20209;-73
2024/04/08 07:16:17;;;;;;;12.88;2.20;;;;;;;27.37;73.26;98288.88;5391705;26;20023;-74
2024/04/08 07:18:42;;;;;;;12.50;2.85;;;;;;;28.16;68.23;98293.22;5393644;26;20016;-73
2024/04/08 07:21:09;;;;;;;13.30;2.50;;;;;;;27.83;66.64;98294.94;5388795;26;19992;-72
2024/04/08 07:23:34;;;;;;;10.00;2.33;;;;;;;27.30;63.51;98278.28;5388252;26;19992;-72
2024/04/08 07:25:59;;;;;;;12.00;2.20;;;;;;;27.84;61.80;98277.91;5389204;26;20220;-72
2024/04/08 07:28:25;;;;;;;17.58;2.45;;;;;;;26.86;63.18;98277.38;5393844;26;20007;-72
2024/04/08 07:30:50;;;;;;;11.90;1.90;;;;;;;28.05;62.63;98280.00;5394896;26;20115;-72
2024/04/08 07:33:15;;;;;;;16.55;2.22;;;;;;;29.48;59.84;98244.81;5384556;26;19996;-71
2024/04/08 07:35:40;;;;;;;13.38;3.15;;;;;;;30.07;57.62;98279.19;5391920;26;20069;-72
2024/04/08 07:38:06;;;;;;;12.23;2.53;;;;;;;30.72;57.62;98268.22;5393354;26;20208;-72
2024/04/08 07:40:31;;;;;;;12.80;2.00;;;;;;;31.31;55.32;98267.69;5393577;26;20002;-71
2024/04/08 07:42:57;;;;;;;8.65;2.00;;;;;;;29.91;56.41;98254.72;5394105;26;20208;-71
2024/04/08 07:45:22;;;;;;;10.05;1.92;;;;;;;32.13;55.46;98262.81;5393131;26;19992;-72
2024/04/08 07:47:47;;;;;;;14.10;2.13;;;;;;;33.03;52.46;98255.47;5395896;26;20037;-72
2024/04/08 07:50:12;;;;;;;11.43;2.08;;;;;;;32.01;52.56;98264.50;5398494;26;20227;-72
2024/04/08 07:52:39;;;;;;;11.40;1.90;;;;;;;33.06;50.96;98245.50;5395444;26;20007;-72
2024/04/08 07:55:05;;;;;;;12.13;1.88;;;;;;;32.85;51.31;98241.00;5401549;26;20024;-72
2024/04/08 07:57:30;;;;;;;11.65;2.00;;;;;;;31.39;53.51;98254.78;5396621;26;20003;-72
2024/04/08 07:59:55;;;;;;;7.75;1.90;;;;;;;32.53;52.74;98263.47;5389137;26;20004;-72
2024/04/08 08:02:23;;;;;;;8.20;2.17;;;;;;;33.70;50.85;98258.13;5383120;26;20050;-72
2024/04/08 08:04:48;;;;;;;13.38;2.50;;;;;;;34.53;49.81;98254.81;5383190;26;20222;-71
2024/04/08 08:07:14;;;;;;;6.88;1.90;;;;;;;34.02;51.33;98249.50;5376498;26;20093;-73
2024/04/08 08:09:39;;;;;;;13.33;2.37;;;;;;;32.90;50.96;98251.94;5397493;26;20015;-81
2024/04/08 08:12:04;;;;;;;8.73;2.03;;;;;;;34.20;48.46;98256.28;5387250;26;20283;-73
2024/04/08 08:14:29;;;;;;;9.70;2.20;;;;;;;34.21;49.01;98243.03;5384273;26;19996;-73
2024/04/08 08:16:55;;;;;;;10.57;1.90;;;;;;;33.42;49.97;98263.13;5378615;26;19992;-79
2024/04/08 08:19:20;;;;;;;10.40;2.13;;;;;;;34.71;48.78;98241.06;5375595;26;20304;-79
2024/04/08 08:21:45;;;;;;;11.57;2.20;;;;;;;34.66;49.14;98255.44;5388852;26;20469;-79
2024/04/08 08:24:11;;;;;;;13.43;2.47;;;;;;;33.96;48.84;98234.16;5397208;26;19992;-78
2024/04/08 08:26:36;;;;;;;13.15;2.20;;;;;;;34.21;48.45;98255.06;5398010;26;20304;-80
2024/04/08 08:29:01;;;;;;;14.15;2.15;;;;;;;35.15;47.83;98246.16;5389643;26;20004;-79
2024/04/08 08:31:26;;;;;;;12.15;1.90;;;;;;;35.07;48.96;98250.88;5394612;26;20037;-80
2024/04/08 08:33:52;;;;;;;12.52;2.47;;;;;;;35.29;47.56;98231.47;5379191;26;20194;-75
2024/04/08 08:36:17;;;;;;;16.87;2.77;;;;;;;36.64;42.58;98237.75;5383259;26;20257;-74
2024/04/08 08:38:42;;;;;;;10.80;1.90;;;;;;;35.85;42.31;98253.09;5389726;26;20234;-84
2024/04/08 08:41:08;;;;;;;8.27;1.55;;;;;;;35.84;40.93;98243.00;5400302;26;20527;-86
2024/04/08 08:43:38;;;;;;;11.07;1.95;;;;;;;37.00;37.65;98245.66;5392499;26;20003;-86
2024/04/08 08:46:04;;;;;;;13.02;1.90;;;;;;;37.15;37.86;98238.91;5382144;26;20003;-87
2024/04/08 08:48:30;;;;;;;9.85;2.20;;;;;;;37.59;37.32;98242.75;5336800;21;20327;-63
2024/04/08 08:50:58;;;;;;;10.68;1.80;;;;;;;38.35;36.49;98234.06;5263616;27;20076;-63
2024/04/08 08:53:24;;;;;;;9.18;1.65;;;;;;;38.19;34.56;98233.66;5260973;27;20061;-64
2024/04/08 08:55:52;;;;;;;9.68;1.15;;;;;;;37.61;33.02;98237.53;5268921;27;20405;-63
2024/04/08 08:58:18;;;;;;;7.35;1.35;;;;;;;37.86;31.84;98234.78;5260126;27;20011;-63
2024/04/08 09:00:43;;;;;;;6.20;1.48;;;;;;;38.21;32.67;98227.59;5276201;27;20454;-64
2024/04/08 09:03:17;;;;;;;6.40;1.40;;;;;;;35.99;30.66;98243.97;5274315;27;20054;-63
2024/04/08 09:05:46;;;;;;;5.68;1.20;;;;;;;37.77;29.96;98217.41;5276269;21;20039;-75
2024/04/08 09:08:11;;;;;;;8.80;1.70;;;;;;;37.87;30.59;98211.00;5239311;27;20207;-77
2024/04/08 09:10:40;;;;;;;9.65;1.50;;;;;;;37.58;31.02;98219.38;5223694;27;20058;-76
2024/04/08 09:13:05;;;;;;;9.18;1.48;;;;;;;37.27;30.77;98204.72;5224637;27;20112;-77
2024/04/08 09:15:31;;;;;;;12.32;1.80;;;;;;;36.08;31.43;98202.28;5235991;27;20006;-75
2024/04/08 09:18:04;;;;;;;4.40;1.23;;;;;;;35.49;32.48;98199.19;5231682;27;20004;-77
2024/04/08 09:20:29;;;;;;;8.93;1.20;;;;;;;36.09;32.23;98200.25;5239015;27;20109;-74
2024/04/08 09:22:54;;;;;;;9.30;1.27;;;;;;;36.99;31.79;98205.34;5219987;27;19996;-75
2024/04/08 09:25:20;;;;;;;10.05;1.58;;;;;;;36.24;32.23;98198.38;5225413;27;20235;-73
2024/04/08 09:27:45;;;;;;;4.80;1.50;;;;;;;37.38;31.85;98215.25;5232096;27;20168;-73
2024/04/08 09:30:11;;;;;;;11.77;1.63;;;;;;;38.26;30.70;98194.09;5217970;27;19996;-74
2024/04/08 09:32:36;;;;;;;8.20;1.35;;;;;;;38.31;30.83;98204.19;5238104;27;19995;-73
2024/04/08 09:35:03;;;;;;;8.13;1.70;;;;;;;36.82;31.05;98206.88;5233807;27;20011;-73
2024/04/08 09:37:31;;;;;;;10.00;1.65;;;;;;;37.36;32.29;98206.34;5224986;27;20243;-74
2024/04/08 09:39:57;;;;;;;8.48;1.90;;;;;;;37.36;31.94;98212.81;5222250;27;20011;-73
2024/04/08 09:42:22;;;;;;;16.50;1.85;;;;;;;36.27;32.99;98184.31;5232009;27;20006;-73
2024/04/08 09:44:48;;;;;;;14.45;1.90;;;;;;;35.98;32.99;98189.69;5234932;27;20006;-73
2024/04/08 09:47:15;;;;;;;11.35;2.08;;;;;;;35.41;33.18;98205.13;5236423;27;19999;-74
2024/04/08 09:49:41;;;;;;;19.48;1.73;;;;;;;34.79;33.62;98199.84;5229739;27;20006;-73
2024/04/08 09:52:08;;;;;;;7.85;1.23;;;;;;;34.99;33.64;98178.03;5224116;27;19998;-72
2024/04/08 09:54:35;;;;;;;12.85;2.05;;;;;;;35.68;32.42;98195.38;5237742;27;20218;-72
2024/04/08 09:57:04;;;;;;;8.73;1.48;;;;;;;36.35;31.98;98199.28;5223103;27;19999;-71
2024/04/08 09:59:31;;;;;;;10.88;1.98;;;;;;;36.63;31.75;98176.16;5240768;27;20046;-71
2024/04/08 10:01:58;;;;;;;10.13;1.67;;;;;;;36.56;32.24;98195.84;5225510;27;20250;-71
2024/04/08 10:04:24;;;;;;;9.10;1.63;;;;;;;36.38;32.88;98185.19;5229574;27;20132;-72
2024/04/08 10:06:50;;;;;;;14.60;1.77;;;;;;;36.66;32.38;98197.91;5224526;27;19996;-72
2024/04/08 10:09:20;;;;;;;6.20;1.40;;;;;;;38.36;31.79;98179.16;5238470;27;20001;-70
2024/04/08 10:11:46;;;;;;;8.88;1.90;;;;;;;38.29;31.63;98179.16;5229321;27;20007;-70
2024/04/08 10:14:19;;;;;;;8.68;1.70;;;;;;;38.48;31.21;98166.66;5237119;27;20015;-71
2024/04/08 10:16:48;;;;;;;12.98;1.80;;;;;;;38.14;30.93;98171.91;5233101;27;19992;-71
2024/04/08 10:19:14;;;;;;;15.85;1.70;;;;;;;36.89;31.65;98172.28;5220679;27;20019;-70
2024/04/08 10:21:39;;;;;;;7.53;1.60;;;;;;;37.04;31.17;98164.72;5225094;27;20007;-72
2024/04/08 10:24:06;;;;;;;7.75;1.67;;;;;;;37.13;32.32;98153.06;5225210;27;20023;-73
2024/04/08 10:26:34;;;;;;;10.00;1.90;;;;;;;37.55;30.41;98146.00;5230453;27;20018;-73
2024/04/08 10:29:00;;;;;;;8.98;1.30;;;;;;;37.15;29.32;98156.31;5227050;27;20043;-74
2024/04/08 10:31:29;;;;;;;8.52;1.40;;;;;;;37.84;30.39;98163.78;5227233;27;20023;-73
2024/04/08 10:33:54;;;;;;;12.18;1.77;;;;;;;37.64;29.86;98169.78;5236307;27;20087;-73
2024/04/08 10:36:20;;;;;;;8.57;1.65;;;;;;;37.68;30.05;98150.84;5233437;27;20110;-73
2024/04/08 10:38:45;;;;;;;10.00;1.77;;;;;;;37.22;29.45;98157.16;5238029;27;20014;-73
2024/04/08 10:41:11;;;;;;;10.50;2.05;;;;;;;37.54;29.10;98167.75;5229129;27;20007;-71
2024/04/08 10:43:36;;;;;;;8.35;1.58;;;;;;;38.02;30.05;98153.34;5222989;27;20011;-71
2024/04/08 10:46:04;;;;;;;9.20;1.58;;;;;;;38.10;29.94;98162.63;5218092;27;20012;-72
2024/04/08 10:48:29;;;;;;;14.07;1.73;;;;;;;39.48;29.28;98161.94;5224001;27;20231;-72
2024/04/08 10:50:55;;;;;;;17.80;2.22;;;;;;;40.25;28.93;98156.19;5233151;27;19998;-72
2024/04/08 10:53:20;;;;;;;9.52;1.98;;;;;;;39.86;28.30;98132.59;5247851;27;20012;-72
2024/04/08 10:55:45;;;;;;;9.45;1.60;;;;;;;40.47;27.37;98139.78;5238492;27;20013;-72
2024/04/08 10:58:11;;;;;;;9.00;1.50;;;;;;;40.35;27.73;98128.94;5229630;27;20067;-74
2024/04/08 11:00:37;;;;;;;7.25;1.88;;;;;;;39.06;27.65;98141.09;5221510;27;20006;-74
2024/04/08 11:03:03;;;;;;;8.02;2.03;;;;;;;39.14;27.81;98134.16;5228009;27;20023;-74
2024/04/08 11:05:28;;;;;;;6.90;1.40;;;;;;;39.22;27.90;98130.91;5222758;27;20004;-74
2024/04/08 11:07:58;;;;;;;11.05;1.70;;;;;;;39.57;27.52;98126.28;5231797;27;20101;-74
2024/04/08 11:10:23;;;;;;;7.85;1.45;;;;;;;40.40;27.65;98120.00;5228765;27;20000;-73
2024/04/08 11:12:49;;;;;;;9.88;1.52;;;;;;;39.66;27.15;98114.50;5229708;27;20026;-73
2024/04/08 11:15:14;;;;;;;6.78;1.60;;;;;;;39.73;28.20;98111.63;5225820;27;20270;-76
2024/04/08 11:17:40;;;;;;;10.73;1.67;;;;;;;40.87;26.43;98131.66;5235337;27;20219;-75
2024/04/08 11:20:06;;;;;;;8.63;1.67;;;;;;;41.95;26.09;98114.81;5222971;27;20351;-74